createdAt,value
2023-10-26T00:01:50.695Z,3.90
2023-10-26T00:04:17.530Z,4.40
2023-10-26T00:06:44.277Z,3.50
2023-10-26T00:09:10.942Z,3.80
2023-10-26T00:11:37.754Z,4.00
2023-10-26T00:14:04.697Z,3.80
2023-10-26T00:16:31.334Z,3.00
2023-10-26T00:18:59.255Z,1.80
2023-10-26T00:21:26.245Z,2.60
2023-10-26T00:23:52.892Z,2.20
2023-10-26T00:26:19.521Z,3.00
2023-10-26T00:28:47.505Z,2.80
2023-10-26T00:31:15.450Z,3.90
2023-10-26T00:33:42.299Z,3.20
2023-10-26T00:36:09.308Z,3.80
2023-10-26T00:38:36.186Z,2.00
2023-10-26T00:41:03.014Z,2.70
2023-10-26T00:43:29.857Z,1.90
2023-10-26T00:45:56.700Z,2.80
2023-10-26T00:48:23.742Z,2.40
2023-10-26T00:50:51.048Z,2.30
2023-10-26T00:53:19.262Z,1.80
2023-10-26T00:55:47.436Z,2.30
2023-10-26T00:58:14.024Z,1.70
2023-10-26T01:00:40.709Z,3.10
2023-10-26T01:03:07.693Z,1.60
2023-10-26T01:05:34.701Z,2.00
2023-10-26T01:08:01.553Z,1.80
2023-10-26T01:10:28.797Z,1.50
2023-10-26T01:12:55.737Z,1.90
2023-10-26T01:15:24.153Z,2.10
2023-10-26T01:17:51.119Z,2.20
2023-10-26T01:20:18.926Z,0.70
2023-10-26T01:22:45.667Z,1.30
2023-10-26T01:25:13.335Z,1.70
2023-10-26T01:27:40.208Z,2.50
2023-10-26T01:30:07.765Z,2.90
2023-10-26T01:32:35.410Z,1.90
2023-10-26T01:35:02.150Z,1.90
2023-10-26T01:37:29.172Z,2.00
2023-10-26T01:39:56.016Z,1.70
2023-10-26T01:42:22.662Z,2.00
2023-10-26T01:44:49.496Z,1.70
2023-10-26T01:47:18.071Z,2.60
2023-10-26T01:49:45.322Z,2.40
2023-10-26T01:52:12.161Z,2.10
2023-10-26T01:54:38.795Z,1.80
2023-10-26T01:57:05.559Z,4.10
2023-10-26T01:59:32.699Z,5.00
2023-10-26T02:01:59.439Z,2.80
2023-10-26T02:04:26.060Z,1.90
2023-10-26T02:06:52.720Z,3.00
2023-10-26T02:09:19.995Z,3.80
2023-10-26T02:11:46.894Z,4.10
2023-10-26T02:14:13.941Z,2.80
2023-10-26T02:16:40.782Z,3.70
2023-10-26T02:19:07.726Z,4.70
2023-10-26T02:21:36.101Z,3.00
2023-10-26T02:24:03.067Z,2.90
2023-10-26T02:26:29.992Z,2.50
2023-10-26T02:28:56.727Z,3.50
2023-10-26T02:31:23.468Z,2.40
2023-10-26T02:33:50.249Z,2.90
2023-10-26T02:36:17.685Z,3.50
2023-10-26T02:38:44.913Z,3.50
2023-10-26T02:41:11.650Z,3.00
2023-10-26T02:43:39.990Z,5.40
2023-10-26T02:46:06.880Z,3.40
2023-10-26T02:48:34.369Z,3.00
2023-10-26T02:51:01.290Z,3.40
2023-10-26T02:53:28.646Z,2.70
2023-10-26T02:55:55.690Z,3.30
2023-10-26T02:58:22.411Z,2.00
2023-10-26T03:00:49.454Z,2.20
2023-10-26T03:03:16.290Z,1.60
2023-10-26T03:05:44.061Z,2.10
2023-10-26T03:08:12.449Z,2.40
2023-10-26T03:10:39.180Z,1.70
2023-10-26T03:13:07.348Z,2.60
2023-10-26T03:15:34.198Z,1.10
2023-10-26T03:18:01.238Z,1.40
2023-10-26T03:20:28.188Z,1.90
2023-10-26T03:22:55.348Z,1.30
2023-10-26T03:25:22.075Z,1.70
2023-10-26T03:27:48.918Z,1.80
2023-10-26T03:30:16.662Z,1.20
2023-10-26T03:32:43.945Z,1.70
2023-10-26T03:35:10.783Z,1.50
2023-10-26T03:37:37.923Z,1.70
2023-10-26T03:40:08.044Z,1.80
2023-10-26T03:42:40.580Z,1.80
2023-10-26T03:45:11.688Z,1.80
2023-10-26T03:47:39.922Z,1.60
2023-10-26T03:50:08.014Z,2.70
2023-10-26T03:52:34.747Z,1.60
2023-10-26T03:55:01.581Z,1.90
2023-10-26T03:57:28.471Z,3.30
2023-10-26T03:59:55.210Z,3.30
2023-10-26T04:02:22.002Z,3.70
2023-10-26T04:04:50.882Z,2.30
2023-10-26T04:07:17.722Z,1.90
2023-10-26T04:09:44.459Z,2.20
2023-10-26T04:12:11.247Z,4.40
2023-10-26T04:14:38.041Z,1.90
2023-10-26T04:17:05.800Z,2.20
2023-10-26T04:19:34.402Z,4.40
2023-10-26T04:22:01.029Z,2.90
2023-10-26T04:24:27.800Z,3.10
2023-10-26T04:26:54.731Z,2.60
2023-10-26T04:29:21.446Z,1.50
2023-10-26T04:31:48.132Z,2.70
2023-10-26T04:34:15.748Z,1.80
2023-10-26T04:36:42.708Z,2.40
2023-10-26T04:39:10.488Z,2.70
2023-10-26T04:41:37.415Z,2.60
2023-10-26T04:44:07.528Z,2.90
2023-10-26T04:46:34.263Z,3.10
2023-10-26T04:49:01.207Z,2.00
2023-10-26T04:51:28.907Z,3.70
2023-10-26T04:53:55.668Z,3.00
2023-10-26T04:56:22.656Z,3.20
2023-10-26T04:58:49.597Z,2.10
2023-10-26T05:01:16.356Z,2.60
2023-10-26T05:03:43.190Z,2.50
2023-10-26T05:06:10.057Z,3.10
2023-10-26T05:08:36.881Z,2.60
2023-10-26T05:11:03.735Z,3.70
2023-10-26T05:13:32.202Z,2.40
2023-10-26T05:15:58.868Z,3.30
2023-10-26T05:18:25.597Z,1.70
2023-10-26T05:20:52.412Z,3.80
2023-10-26T05:23:19.150Z,2.60
2023-10-26T05:25:45.885Z,2.80
2023-10-26T05:28:12.726Z,2.50
2023-10-26T05:30:42.522Z,2.90
2023-10-26T05:33:17.389Z,2.30
2023-10-26T05:35:45.283Z,2.30
2023-10-26T05:38:12.276Z,2.60
2023-10-26T05:40:39.115Z,4.50
2023-10-26T05:43:05.719Z,3.20
2023-10-26T05:45:37.990Z,4.70
2023-10-26T05:48:09.456Z,2.80
2023-10-26T05:50:41.529Z,5.00
2023-10-26T05:53:12.406Z,2.90
2023-10-26T05:55:44.104Z,2.60
2023-10-26T05:58:10.937Z,3.20
2023-10-26T06:00:40.438Z,2.90
2023-10-26T06:03:10.467Z,3.80
2023-10-26T06:05:38.272Z,3.30
2023-10-26T06:08:09.078Z,3.20
2023-10-26T06:10:39.711Z,2.90
2023-10-26T06:13:09.456Z,2.90
2023-10-26T06:15:37.302Z,2.80
2023-10-26T06:18:04.541Z,3.30
2023-10-26T06:20:31.601Z,2.90
2023-10-26T06:23:03.320Z,3.80
2023-10-26T06:25:37.382Z,3.60
2023-10-26T06:28:04.425Z,4.40
2023-10-26T06:30:33.921Z,5.50
2023-10-26T06:33:02.176Z,6.40
2023-10-26T06:35:29.014Z,7.00
2023-10-26T06:37:55.851Z,4.60
2023-10-26T06:40:22.654Z,4.00
2023-10-26T06:42:49.404Z,3.60
2023-10-26T06:45:16.132Z,2.60
2023-10-26T06:47:43.039Z,2.60
2023-10-26T06:50:10.087Z,4.00
2023-10-26T06:52:37.205Z,2.30
2023-10-26T06:55:09.080Z,3.30
2023-10-26T06:57:42.918Z,3.00
2023-10-26T07:00:11.056Z,2.80
2023-10-26T07:02:39.396Z,3.00
2023-10-26T07:05:06.865Z,3.70
2023-10-26T07:07:34.986Z,3.90
2023-10-26T07:10:02.099Z,5.40
2023-10-26T07:12:31.311Z,4.20
2023-10-26T07:14:58.189Z,2.40
2023-10-26T07:17:24.950Z,3.90
2023-10-26T07:19:51.872Z,4.90
2023-10-26T07:22:18.871Z,3.20
2023-10-26T07:24:46.110Z,4.30
2023-10-26T07:27:13.515Z,3.70
2023-10-26T07:29:40.784Z,3.50
2023-10-26T07:32:08.150Z,2.80
2023-10-26T07:34:35.385Z,4.10
2023-10-26T07:37:02.176Z,3.50
2023-10-26T07:39:44.729Z,3.80
2023-10-26T07:42:15.373Z,4.10
2023-10-26T07:44:42.596Z,3.20
2023-10-26T07:47:16.424Z,3.70
2023-10-26T07:49:49.752Z,3.80
2023-10-26T07:52:16.882Z,3.40
2023-10-26T07:54:43.833Z,2.50
2023-10-26T07:57:11.026Z,3.00
2023-10-26T07:59:37.760Z,2.80
2023-10-26T08:02:04.933Z,5.00
2023-10-26T08:04:33.109Z,3.70
2023-10-26T08:07:00.899Z,4.30
2023-10-26T08:09:32.552Z,4.90
2023-10-26T08:12:00.006Z,5.20
2023-10-26T08:16:05.553Z,3.90
2023-10-26T08:17:17.666Z,3.80
2023-10-26T08:19:44.469Z,3.80
2023-10-26T08:22:11.221Z,3.30
2023-10-26T08:24:38.485Z,5.10
2023-10-26T08:27:05.631Z,4.30
2023-10-26T08:29:32.461Z,3.90
2023-10-26T08:32:00.208Z,4.10
2023-10-26T08:34:28.503Z,4.10
2023-10-26T08:39:25.467Z,2.80
2023-10-26T08:41:52.412Z,4.30
2023-10-26T08:44:19.361Z,3.30
2023-10-26T08:46:47.585Z,2.10
2023-10-26T08:49:14.279Z,2.10
2023-10-26T08:51:40.979Z,3.30
2023-10-26T08:54:07.644Z,3.70
2023-10-26T08:56:34.341Z,4.00
2023-10-26T08:59:03.620Z,3.20
2023-10-26T09:01:30.679Z,3.50
2023-10-26T09:03:57.796Z,4.00
2023-10-26T09:06:24.749Z,2.80
2023-10-26T09:09:02.311Z,2.90
2023-10-26T09:11:30.829Z,4.60
2023-10-26T09:14:12.375Z,4.00
2023-10-26T09:16:41.146Z,4.30
2023-10-26T09:19:08.520Z,4.40
2023-10-26T09:21:52.110Z,4.70
2023-10-26T09:24:26.781Z,3.50
2023-10-26T09:26:54.543Z,3.80
2023-10-26T09:29:22.951Z,3.20
2023-10-26T09:31:56.559Z,3.10
2023-10-26T09:34:24.764Z,2.90
2023-10-26T09:37:05.334Z,3.10
2023-10-26T09:39:34.439Z,3.50
2023-10-26T09:42:02.215Z,3.80
2023-10-26T09:44:30.424Z,3.70
2023-10-26T09:46:59.354Z,4.30
2023-10-26T09:49:26.815Z,2.30
2023-10-26T09:51:53.793Z,2.40
2023-10-26T09:54:40.117Z,3.10
2023-10-26T09:57:19.307Z,4.30
2023-10-26T09:59:53.577Z,5.20
2023-10-26T10:02:20.766Z,6.20
2023-10-26T10:04:48.634Z,3.60
2023-10-26T10:07:39.037Z,3.90
2023-10-26T10:10:10.633Z,3.90
2023-10-26T10:12:39.268Z,2.40
2023-10-26T10:15:36.333Z,2.50
2023-10-26T10:17:57.565Z,2.80
2023-10-26T10:20:24.467Z,3.20
2023-10-26T10:22:52.948Z,3.30
2023-10-26T10:25:20.232Z,3.30
2023-10-26T10:27:49.999Z,3.30
2023-10-26T10:30:21.558Z,3.10
2023-10-26T10:32:49.008Z,2.10
2023-10-26T10:35:21.843Z,3.30
2023-10-26T10:38:16.600Z,2.60
2023-10-26T10:40:55.950Z,4.00
2023-10-26T10:43:38.240Z,2.60
2023-10-26T10:46:11.671Z,3.90
2023-10-26T10:48:57.862Z,2.70
2023-10-26T10:51:30.717Z,3.30
2023-10-26T10:53:59.233Z,2.70
2023-10-26T10:56:28.340Z,2.50
2023-10-26T10:58:56.715Z,3.00
2023-10-26T11:01:23.557Z,3.10
2023-10-26T11:03:50.417Z,3.50
2023-10-26T11:06:18.172Z,3.80
2023-10-26T11:08:45.132Z,2.70
2023-10-26T11:11:27.193Z,4.50
2023-10-26T11:14:10.257Z,3.50
2023-10-26T11:16:37.638Z,3.10
2023-10-26T11:19:04.458Z,2.90
2023-10-26T11:21:31.334Z,2.60
2023-10-26T11:23:58.556Z,3.70
2023-10-26T11:26:25.398Z,2.80
2023-10-26T11:28:52.151Z,3.50
2023-10-26T11:31:43.878Z,2.70
2023-10-26T11:34:11.046Z,3.00
2023-10-26T11:36:38.324Z,1.70
2023-10-26T11:39:05.822Z,2.30
2023-10-26T11:41:33.890Z,3.20
2023-10-26T11:44:00.921Z,2.10
2023-10-26T11:46:37.697Z,2.10
2023-10-26T11:49:05.575Z,2.90
2023-10-26T11:51:32.772Z,3.50
2023-10-26T11:54:11.098Z,2.10
2023-10-26T11:56:38.386Z,2.20
2023-10-26T11:59:05.640Z,3.00
2023-10-26T12:01:32.632Z,2.40
2023-10-26T12:03:59.528Z,3.50
2023-10-26T12:06:29.457Z,2.60
2023-10-26T12:08:56.091Z,2.40
2023-10-26T12:11:22.697Z,2.30
2023-10-26T12:13:49.292Z,2.10
2023-10-26T12:16:15.978Z,1.80
2023-10-26T12:18:42.968Z,2.90
2023-10-26T12:21:09.877Z,2.30
2023-10-26T12:23:36.819Z,2.00
2023-10-26T12:26:03.677Z,2.00
2023-10-26T12:28:31.138Z,2.80
2023-10-26T12:30:58.276Z,3.20
2023-10-26T12:33:25.612Z,2.50
2023-10-26T12:35:52.502Z,2.10
2023-10-26T12:38:20.255Z,2.50
2023-10-26T12:40:48.263Z,2.60
2023-10-26T12:43:15.128Z,1.50
2023-10-26T12:45:41.864Z,2.10
2023-10-26T12:48:08.613Z,2.30
2023-10-26T12:50:35.249Z,1.60
2023-10-26T12:53:01.789Z,2.00
2023-10-26T12:55:30.404Z,1.90
2023-10-26T12:57:58.035Z,3.60
2023-10-26T13:00:25.898Z,3.20
2023-10-26T13:02:52.549Z,4.00
2023-10-26T13:05:19.336Z,3.80
2023-10-26T13:07:46.109Z,3.10
2023-10-26T13:10:13.174Z,3.30
2023-10-26T13:12:40.445Z,3.40
2023-10-26T13:15:08.097Z,3.20
2023-10-26T13:17:34.933Z,2.80
2023-10-26T13:20:02.072Z,3.40
2023-10-26T13:22:29.327Z,4.50
2023-10-26T13:24:56.160Z,2.60
2023-10-26T13:27:23.109Z,3.30
2023-10-26T13:29:50.668Z,2.50
2023-10-26T13:32:17.491Z,3.40
2023-10-26T13:34:44.648Z,2.90
2023-10-26T13:37:11.720Z,3.30
2023-10-26T13:39:39.807Z,2.50
2023-10-26T13:42:06.701Z,2.40
2023-10-26T13:44:33.855Z,3.00
2023-10-26T13:47:00.830Z,2.70
2023-10-26T13:49:28.249Z,2.40
2023-10-26T13:51:55.312Z,2.10
2023-10-26T13:54:22.341Z,3.00
2023-10-26T13:56:49.413Z,2.40
2023-10-26T13:59:16.237Z,2.00
2023-10-26T14:01:43.557Z,2.70
2023-10-26T14:04:10.680Z,2.10
2023-10-26T14:06:37.498Z,2.40
2023-10-26T14:09:04.266Z,2.80
2023-10-26T14:11:31.996Z,2.30
2023-10-26T14:13:58.812Z,3.70
2023-10-26T14:16:27.660Z,4.40
2023-10-26T14:18:56.959Z,2.80
2023-10-26T14:21:23.811Z,2.90
2023-10-26T14:23:50.684Z,3.10
2023-10-26T14:26:17.564Z,2.40
2023-10-26T14:28:45.733Z,2.90
2023-10-26T14:31:13.488Z,3.40
2023-10-26T14:33:40.331Z,3.40
2023-10-26T14:36:07.482Z,2.50
2023-10-26T14:38:34.508Z,3.10
2023-10-26T14:41:01.492Z,3.80
2023-10-26T14:43:28.956Z,4.70
2023-10-26T14:45:56.173Z,3.10
2023-10-26T14:48:23.498Z,3.80
2023-10-26T14:50:58.417Z,4.00
2023-10-26T14:53:25.889Z,3.30
2023-10-26T14:55:53.242Z,3.30
2023-10-26T14:58:20.085Z,3.40
2023-10-26T15:00:46.975Z,3.90
2023-10-26T15:03:13.768Z,2.70
2023-10-26T15:05:40.447Z,3.70
2023-10-26T15:08:07.154Z,3.20
2023-10-26T15:10:38.018Z,3.60
2023-10-26T15:13:05.181Z,3.90
2023-10-26T15:15:32.001Z,3.00
2023-10-26T15:17:58.767Z,5.00
2023-10-26T15:20:25.553Z,3.10
2023-10-26T15:22:52.353Z,2.50
2023-10-26T15:25:19.209Z,3.20
2023-10-26T15:27:46.236Z,3.60
2023-10-26T15:30:13.400Z,3.20
2023-10-26T15:32:40.452Z,4.00
2023-10-26T15:35:07.920Z,3.00
2023-10-26T15:37:34.789Z,2.90
2023-10-26T15:40:01.947Z,2.70
2023-10-26T15:42:30.116Z,3.20
2023-10-26T15:44:56.979Z,2.60
2023-10-26T15:47:25.566Z,3.00
2023-10-26T15:49:52.576Z,2.70
2023-10-26T15:52:19.412Z,3.80
2023-10-26T15:54:46.533Z,3.20
2023-10-26T15:57:13.717Z,2.80
2023-10-26T15:59:40.487Z,3.20
2023-10-26T16:02:07.422Z,3.10
2023-10-26T16:04:34.708Z,2.80
2023-10-26T16:07:01.771Z,2.10
2023-10-26T16:09:30.060Z,3.30
2023-10-26T16:11:57.154Z,3.20
2023-10-26T16:14:24.171Z,3.40
2023-10-26T16:16:51.185Z,3.80
2023-10-26T16:19:18.347Z,4.10
2023-10-26T16:21:45.511Z,2.50
2023-10-26T16:24:13.399Z,3.10
2023-10-26T16:26:40.725Z,4.70
2023-10-26T16:29:08.432Z,5.20
2023-10-26T16:31:35.457Z,4.20
2023-10-26T16:34:02.141Z,4.40
2023-10-26T16:36:29.066Z,5.40
2023-10-26T16:38:55.955Z,4.90
2023-10-26T16:41:23.316Z,6.10
2023-10-26T16:43:50.139Z,3.30
2023-10-26T16:46:18.504Z,3.20
2023-10-26T16:48:45.725Z,3.30
2023-10-26T16:51:12.581Z,3.10
2023-10-26T16:53:43.281Z,2.90
2023-10-26T16:56:10.241Z,4.90
2023-10-26T16:58:37.231Z,4.40
2023-10-26T17:01:05.589Z,4.20
2023-10-26T17:03:32.318Z,4.10
2023-10-26T17:05:59.122Z,3.60
2023-10-26T17:08:25.980Z,3.10
2023-10-26T17:10:52.742Z,2.80
2023-10-26T17:13:23.887Z,2.70
2023-10-26T17:15:52.508Z,3.90
2023-10-26T17:18:20.644Z,3.30
2023-10-26T17:20:47.489Z,2.80
2023-10-26T17:23:14.162Z,4.20
2023-10-26T17:25:41.878Z,3.50
2023-10-26T17:28:09.402Z,4.20
2023-10-26T17:30:37.360Z,3.20
2023-10-26T17:33:04.716Z,5.30
2023-10-26T17:35:38.177Z,3.60
2023-10-26T17:38:04.958Z,4.70
2023-10-26T17:40:31.856Z,5.00
2023-10-26T17:42:58.654Z,5.90
2023-10-26T17:45:26.162Z,4.80
2023-10-26T17:47:53.032Z,3.60
2023-10-26T17:50:20.157Z,3.40
2023-10-26T17:52:46.997Z,3.90
2023-10-26T17:55:14.298Z,3.40
2023-10-26T17:57:41.447Z,4.50
2023-10-26T18:00:09.331Z,4.00
2023-10-26T18:02:40.440Z,3.40
2023-10-26T18:05:07.766Z,2.80
2023-10-26T18:07:34.552Z,3.70
2023-10-26T18:10:01.363Z,4.10
2023-10-26T18:12:28.186Z,3.00
2023-10-26T18:14:55.028Z,3.30
2023-10-26T18:17:24.033Z,3.60
2023-10-26T18:19:50.866Z,4.10
2023-10-26T18:22:17.914Z,2.00
2023-10-26T18:24:44.672Z,3.50
2023-10-26T18:27:12.024Z,3.10
2023-10-26T18:29:39.455Z,3.20
2023-10-26T18:32:09.057Z,1.80
2023-10-26T18:34:36.100Z,2.10
2023-10-26T18:37:03.299Z,2.90
2023-10-26T18:39:31.107Z,3.40
2023-10-26T18:41:58.049Z,2.60
2023-10-26T18:44:25.516Z,2.20
2023-10-26T18:46:52.381Z,1.50
2023-10-26T18:49:19.418Z,1.70
2023-10-26T18:51:46.255Z,2.10
2023-10-26T18:54:13.068Z,2.20
2023-10-26T18:56:40.112Z,1.90
2023-10-26T18:59:07.057Z,1.90
2023-10-26T19:01:34.035Z,2.20
2023-10-26T19:04:02.751Z,1.70
2023-10-26T19:06:30.464Z,1.40
2023-10-26T19:08:58.227Z,1.80
2023-10-26T19:11:25.066Z,3.00
2023-10-26T19:13:52.200Z,1.30
2023-10-26T19:16:19.453Z,1.70
2023-10-26T19:18:46.550Z,1.70
2023-10-26T19:21:13.878Z,1.50
2023-10-26T19:23:42.253Z,1.70
2023-10-26T19:26:10.625Z,2.90
2023-10-26T19:28:37.892Z,2.20
2023-10-26T19:31:08.988Z,2.70
2023-10-26T19:33:35.960Z,1.30
2023-10-26T19:36:05.406Z,1.40
2023-10-26T19:38:32.332Z,1.90
2023-10-26T19:40:59.254Z,1.40
2023-10-26T19:43:26.088Z,2.00
2023-10-26T19:45:53.015Z,2.20
2023-10-26T19:48:20.078Z,1.20
2023-10-26T19:50:47.339Z,1.20
2023-10-26T19:53:14.169Z,1.00
2023-10-26T19:55:41.966Z,1.90
2023-10-26T19:58:09.035Z,1.40
2023-10-26T20:00:36.236Z,1.40
2023-10-26T20:03:04.659Z,2.00
2023-10-26T20:05:31.493Z,1.70
2023-10-26T20:07:58.485Z,2.30
2023-10-26T20:10:25.728Z,1.80
2023-10-26T20:12:52.828Z,1.40
2023-10-26T20:15:19.756Z,2.80
2023-10-26T20:17:46.567Z,1.20
2023-10-26T20:20:13.505Z,1.00
2023-10-26T20:22:40.484Z,0.90
2023-10-26T20:25:07.972Z,1.00
2023-10-26T20:27:34.767Z,1.00
2023-10-26T20:30:01.752Z,0.90
2023-10-26T20:32:28.905Z,1.80
2023-10-26T20:34:55.799Z,1.10
2023-10-26T20:37:22.526Z,1.20
2023-10-26T20:39:49.701Z,1.40
2023-10-26T20:42:16.517Z,1.40
2023-10-26T20:44:43.309Z,0.60
2023-10-26T20:47:10.071Z,0.80
2023-10-26T20:49:36.836Z,1.40
2023-10-26T20:52:04.771Z,1.50
2023-10-26T20:54:31.429Z,2.80
2023-10-26T20:56:58.186Z,2.50
2023-10-26T20:59:24.850Z,2.40
2023-10-26T21:01:51.837Z,2.40
2023-10-26T21:04:18.575Z,2.30
2023-10-26T21:06:47.000Z,1.60
2023-10-26T21:09:14.961Z,2.80
2023-10-26T21:11:41.600Z,1.50
2023-10-26T21:14:09.056Z,2.10
2023-10-26T21:16:36.081Z,3.30
2023-10-26T21:19:02.996Z,3.10
2023-10-26T21:21:29.889Z,2.30
2023-10-26T21:23:56.938Z,1.60
2023-10-26T21:26:23.677Z,2.40
2023-10-26T21:28:54.716Z,1.40
2023-10-26T21:31:24.275Z,2.10
2023-10-26T21:33:52.022Z,1.70
2023-10-26T21:36:20.160Z,1.80
2023-10-26T21:38:48.327Z,1.70
2023-10-26T21:41:14.962Z,2.40
2023-10-26T21:43:41.731Z,2.50
2023-10-26T21:46:08.456Z,1.70
2023-10-26T21:48:35.635Z,1.60
2023-10-26T21:51:05.399Z,2.10
2023-10-26T21:53:32.243Z,2.90
2023-10-26T21:55:59.082Z,2.20
2023-10-26T21:58:25.897Z,2.70
2023-10-26T22:00:53.868Z,3.00
2023-10-26T22:03:22.071Z,2.40
2023-10-26T22:05:49.322Z,2.10
2023-10-26T22:08:16.566Z,3.20
2023-10-26T22:10:43.407Z,3.20
2023-10-26T22:13:10.161Z,3.60
2023-10-26T22:15:37.085Z,3.30
2023-10-26T22:18:03.884Z,2.10
2023-10-26T22:20:30.765Z,2.00
2023-10-26T22:22:57.616Z,2.50
2023-10-26T22:25:24.686Z,1.40
2023-10-26T22:27:51.520Z,1.30
2023-10-26T22:30:18.335Z,1.10
2023-10-26T22:32:45.125Z,1.60
2023-10-26T22:35:12.144Z,1.90
2023-10-26T22:37:39.063Z,1.50
2023-10-26T22:40:06.907Z,0.80
2023-10-26T22:42:34.280Z,1.40
2023-10-26T22:45:02.082Z,2.30
2023-10-26T22:47:29.154Z,1.00
2023-10-26T22:49:56.125Z,1.50
2023-10-26T22:52:23.097Z,2.00
2023-10-26T22:54:49.846Z,2.40
2023-10-26T22:57:18.095Z,1.90
2023-10-26T22:59:48.173Z,2.90
2023-10-26T23:02:15.054Z,2.40
2023-10-26T23:04:42.573Z,2.10
2023-10-26T23:07:09.575Z,2.90
2023-10-26T23:09:36.296Z,2.00
2023-10-26T23:12:03.544Z,2.30
2023-10-26T23:14:30.902Z,2.40
2023-10-26T23:16:57.698Z,2.00
2023-10-26T23:19:25.137Z,1.70
2023-10-26T23:21:51.971Z,2.20
2023-10-26T23:24:18.896Z,2.00
2023-10-26T23:26:45.620Z,3.30
2023-10-26T23:29:12.260Z,3.30
2023-10-26T23:31:38.897Z,3.10
2023-10-26T23:34:05.704Z,2.50
2023-10-26T23:36:32.380Z,1.70
2023-10-26T23:38:59.022Z,2.70
2023-10-26T23:41:25.653Z,3.70
2023-10-26T23:43:52.284Z,2.40
2023-10-26T23:46:19.041Z,1.50
2023-10-26T23:48:45.755Z,1.80
2023-10-26T23:51:12.606Z,1.30
2023-10-26T23:53:39.339Z,1.70
2023-10-26T23:56:07.104Z,1.80
2023-10-26T23:58:34.044Z,1.40
